Time;durP1;ratioP1;P1;durP2;ratioP2;P2;SDS_P1;SDS_P2;PMS_P1;PMS_P2;Temp;Humidity;BMP_temperature;BMP_pressure;BME280_temperature;BME280_humidity;BME280_pressure;Samples;Min_cycle;Max_cycle;Signal;HPM_P1;HPM_P2
2023/05/02 00:00:30;;;;;;;17.60;7.80;;;;;;;;;;5016122;28;20411;-81
2023/05/02 00:02:56;;;;;;;18.50;7.30;;;;;;;;;;5024742;28;20458;-81
2023/05/02 00:05:23;;;;;;;14.20;6.97;;;;;;;;;;4999822;28;20429;-81
2023/05/02 00:07:50;;;;;;;16.27;7.70;;;10.10;99.90;;;;;;5023458;28;20423;-81
2023/05/02 00:10:16;;;;;;;16.65;7.43;;;;;;;;;;5034170;28;20458;-81
2023/05/02 00:12:42;;;;;;;17.88;8.15;;;;;;;;;;5035596;28;20907;-82
2023/05/02 00:15:09;;;;;;;13.52;6.60;;;;;;;;;;5019344;28;20751;-80
2023/05/02 00:17:35;;;;;;;16.02;6.50;;;;;;;;;;5034213;28;20434;-79
2023/05/02 00:20:03;;;;;;;14.15;6.85;;;;;;;;;;5026260;28;20415;-79
2023/05/02 00:22:29;;;;;;;16.13;6.63;;;;;;;;;;5028906;28;20760;-80
2023/05/02 00:24:58;;;;;;;17.13;6.65;;;;;;;;;;5018928;28;20411;-80
2023/05/02 00:27:25;;;;;;;14.65;5.63;;;;;;;;;;5014064;28;20433;-79
2023/05/02 00:29:53;;;;;;;14.68;5.18;;;;;;;;;;5022245;28;20438;-79
2023/05/02 00:32:20;;;;;;;13.10;5.00;;;;;;;;;;4993691;28;20866;-79
2023/05/02 00:34:49;;;;;;;12.32;5.20;;;;;;;;;;5016873;28;20415;-79
2023/05/02 00:37:16;;;;;;;14.65;5.60;;;;;;;;;;5018259;28;20467;-79
2023/05/02 00:39:43;;;;;;;15.30;5.43;;;;;;;;;;5018657;28;20482;-79
2023/05/02 00:42:12;;;;;;;11.05;5.43;;;;;;;;;;5001867;28;20405;-78
2023/05/02 00:44:39;;;;;;;15.77;5.68;;;;;;;;;;4995595;28;20924;-78
2023/05/02 00:47:05;;;;;;;14.68;6.20;;;;;;;;;;5030726;28;20454;-79
2023/05/02 00:49:32;;;;;;;14.68;6.38;;;;;;;;;;5032763;28;20934;-78
2023/05/02 00:52:04;;;;;;;13.75;5.60;;;;;;;;;;4986702;28;20411;-78
2023/05/02 00:54:31;;;;;;;13.10;5.57;;;;;;;;;;4984375;28;20418;-79
2023/05/02 00:57:06;;;;;;;14.77;5.95;;;;;;;;;;5011914;28;20438;-79
2023/05/02 00:59:36;;;;;;;12.85;4.88;;;;;;;;;;4983856;28;20462;-79
2023/05/02 01:02:32;;;;;;;12.20;4.82;;;;;;;;;;5015560;28;20412;-79
2023/05/02 01:05:22;;;;;;;13.63;4.77;;;;;;;;;;5016104;28;20583;-78
2023/05/02 01:08:08;;;;;;;9.85;4.28;;;;;;;;;;4982891;28;20579;-78
2023/05/02 01:11:01;;;;;;;11.03;4.30;;;;;;;;;;5013738;28;20564;-78
2023/05/02 01:13:29;;;;;;;11.13;4.57;;;;;;;;;;5012661;28;20478;-78
2023/05/02 01:16:14;;;;;;;12.05;4.70;;;;;;;;;;5001508;28;20968;-79
2023/05/02 01:18:43;;;;;;;9.13;4.90;;;;;;;;;;5015813;28;20431;-78
2023/05/02 01:21:12;;;;;;;12.15;4.38;;;;;;;;;;5011859;28;20417;-79
2023/05/02 01:23:58;;;;;;;10.38;4.43;;;;;;;;;;5004844;28;20479;-78
2023/05/02 01:26:32;;;;;;;13.63;4.40;;;;;;;;;;5013238;28;20940;-77
2023/05/02 01:29:13;;;;;;;11.98;4.82;;;;;;;;;;5016981;28;20736;-78
2023/05/02 01:31:43;;;;;;;11.23;4.20;;;;;;;;;;5030766;28;20981;-78
2023/05/02 01:34:20;;;;;;;11.25;4.35;;;;;;;;;;5015113;28;20485;-79
2023/05/02 01:36:48;;;;;;;11.48;5.45;;;;;;;;;;5031574;28;20459;-79
2023/05/02 01:39:25;;;;;;;11.35;4.82;;;;;;;;;;5002156;28;20419;-79
2023/05/02 01:41:57;;;;;;;16.60;6.05;;;;;;;;;;5033546;28;20395;-77
2023/05/02 01:44:36;;;;;;;20.67;7.10;;;;;;;;;;5017596;28;20919;-78
2023/05/02 01:47:10;;;;;;;26.67;7.60;;;;;;;;;;5009270;28;20429;-78
2023/05/02 01:49:44;;;;;;;24.65;7.13;;;;;;;;;;5030553;28;20456;-79
2023/05/02 01:52:16;;;;;;;19.60;7.43;;;;;;;;;;5013581;28;20436;-79
2023/05/02 01:54:47;;;;;;;20.70;5.85;;;;;;;;;;5010792;28;20398;-79
2023/05/02 01:57:15;;;;;;;19.77;5.90;;;;;;;;;;5007898;28;20840;-79
2023/05/02 01:59:43;;;;;;;22.97;6.20;;;;;;;;;;5012050;28;20419;-79
2023/05/02 02:02:11;;;;;;;16.27;5.25;;;;;;;;;;5013410;28;20415;-79
2023/05/02 02:04:38;;;;;;;18.70;5.47;;;;;;;;;;5014647;28;20419;-79
2023/05/02 02:07:12;;;;;;;19.33;5.13;;;;;;;;;;4998160;28;20419;-78
2023/05/02 02:09:39;;;;;;;15.50;5.05;;;;;;;;;;5017242;28;20924;-78
2023/05/02 02:12:08;;;;;;;18.23;5.05;;;;;;;;;;5023871;28;20475;-78
2023/05/02 02:14:38;;;;;;;19.30;5.20;;;;;;;;;;5018284;28;20411;-79
2023/05/02 02:17:08;;;;;;;22.15;5.50;;;;;;;;;;5015021;28;20430;-78
2023/05/02 02:19:35;;;;;;;23.13;5.97;;;;;;;;;;5032243;28;20418;-78
2023/05/02 02:22:05;;;;;;;22.35;5.53;;;;;;;;;;4996045;28;20464;-78
2023/05/02 02:24:38;;;;;;;25.23;6.45;;;;;;;;;;4999140;28;20488;-79
2023/05/02 02:27:04;;;;;;;24.50;7.05;;;;;;;;;;5011959;28;20979;-78
2023/05/02 02:29:43;;;;;;;21.27;5.88;;;;;;;;;;5031984;28;20426;-80
2023/05/02 02:32:15;;;;;;;22.83;5.88;;;;;;;;;;5031131;28;20863;-80
2023/05/02 02:34:54;;;;;;;25.15;5.78;;;;;;;;;;5001683;28;20918;-79
2023/05/02 02:37:25;;;;;;;21.08;5.60;;;;;;;;;;5018995;28;20509;-79
2023/05/02 02:39:54;;;;;;;19.98;4.82;;;;;;;;;;5005425;28;20507;-78
2023/05/02 02:42:35;;;;;;;26.50;5.90;;;;;;;;;;4996090;28;20396;-79
2023/05/02 02:45:42;;;;;;;19.80;5.55;;;8.60;99.90;;;;;;5013986;28;20411;-79
2023/05/02 02:48:18;;;;;;;21.88;5.95;;;;;;;;;;5032348;28;20430;-79
2023/05/02 02:51:03;;;;;;;20.77;5.77;;;;;;;;;;5012318;28;20432;-79
2023/05/02 02:53:46;;;;;;;21.73;5.82;;;;;;;;;;5010598;28;20425;-79
2023/05/02 02:56:16;;;;;;;19.70;5.50;;;;;;;;;;5009763;28;20500;-79
2023/05/02 02:58:53;;;;;;;24.17;5.50;;;;;;;;;;5004767;28;20434;-78
2023/05/02 03:01:20;;;;;;;19.00;5.22;;;;;;;;;;5013919;28;20439;-78
2023/05/02 03:03:47;;;;;;;20.83;5.75;;;;;;;;;;4990307;28;20912;-77
2023/05/02 03:06:15;;;;;;;23.95;5.88;;;;;;;;;;5006652;28;20423;-78
2023/05/02 03:08:43;;;;;;;21.65;5.55;;;;;;;;;;5031652;28;20403;-78
2023/05/02 03:11:10;;;;;;;22.15;4.93;;;;;;;;;;5021228;28;20500;-78
2023/05/02 03:13:38;;;;;;;15.60;4.40;;;;;;;;;;5021893;28;20436;-78
2023/05/02 03:16:36;;;;;;;15.85;4.40;;;8.30;99.90;;;;;;5004446;28;20913;-79
2023/05/02 03:19:12;;;;;;;18.10;4.50;;;;;;;;;;5022939;28;20425;-79
2023/05/02 03:21:38;;;;;;;16.15;4.45;;;;;;;;;;5018184;28;20435;-79
2023/05/02 03:24:17;;;;;;;15.07;4.38;;;;;;;;;;5020914;28;20395;-79
2023/05/02 03:26:49;;;;;;;14.98;4.40;;;;;;;;;;5032648;28;20516;-79
2023/05/02 03:29:17;;;;;;;15.40;4.28;;;;;;;;;;5012019;28;20490;-80
2023/05/02 03:31:45;;;;;;;16.02;4.32;;;;;;;;;;5022411;28;20424;-80
2023/05/02 03:34:11;;;;;;;14.75;4.10;;;;;;;;;;5019036;28;20422;-79
2023/05/02 03:36:44;;;;;;;16.70;4.03;;;;;;;;;;5018257;28;20469;-79
2023/05/02 03:39:16;;;;;;;17.60;4.25;;;;;;;;;;5033960;28;20427;-80
2023/05/02 03:41:48;;;;;;;15.85;4.25;;;;;;;;;;5019229;28;20423;-79
2023/05/02 03:44:16;;;;;;;14.70;4.15;;;;;;;;;;5018471;28;20778;-79
2023/05/02 03:46:43;;;;;;;14.50;3.90;;;;;;;;;;5002341;28;20427;-79
2023/05/02 03:49:13;;;;;;;12.40;3.83;;;;;;;;;;5019602;28;20482;-79
2023/05/02 03:51:39;;;;;;;16.15;3.97;;;;;;;;;;5018025;28;20926;-79
2023/05/02 03:54:06;;;;;;;16.40;4.00;;;;;;;;;;5003153;28;20453;-79
2023/05/02 03:56:33;;;;;;;15.25;3.50;;;;;;;;;;5015366;28;20959;-79
2023/05/02 03:59:00;;;;;;;13.25;3.38;;;;;;;;;;4999392;28;20424;-79
2023/05/02 04:01:26;;;;;;;12.07;3.67;;;;;;;;;;5011423;28;20428;-79
2023/05/02 04:03:54;;;;;;;15.38;3.40;;;;;;;;;;5010807;28;20405;-79
2023/05/02 04:06:25;;;;;;;16.02;3.50;;;;;;;;;;4984164;28;20881;-79
2023/05/02 04:08:51;;;;;;;13.18;3.47;;;;;;;;;;5030388;28;20506;-79
2023/05/02 04:11:19;;;;;;;9.57;3.07;;;;;;;;;;5034263;28;20914;-79
2023/05/02 04:13:46;;;;;;;12.02;3.20;;;;;;;;;;5011938;28;20784;-79
2023/05/02 04:16:18;;;;;;;9.02;2.40;;;;;;;;;;4997017;28;20454;-79
2023/05/02 04:18:44;;;;;;;11.68;2.90;;;;;;;;;;4985750;28;20452;-79
2023/05/02 04:21:11;;;;;;;10.60;3.00;;;;;;;;;;5022071;28;20897;-80
2023/05/02 04:23:37;;;;;;;13.27;2.80;;;;;;;;;;4991689;28;20495;-80
2023/05/02 04:26:04;;;;;;;11.82;2.70;;;;;;;;;;5017385;28;20462;-79
2023/05/02 04:28:30;;;;;;;10.52;2.90;;;;;;;;;;5000810;28;20404;-77
2023/05/02 04:30:56;;;;;;;11.65;2.50;;;;;;;;;;4993021;28;20431;-77
2023/05/02 04:33:23;;;;;;;10.75;2.80;;;;;;;;;;5012257;28;20506;-76
2023/05/02 04:35:49;;;;;;;10.88;2.75;;;;;;;;;;5019604;28;20414;-77
2023/05/02 04:38:16;;;;;;;13.57;2.73;;;;;;;;;;5018532;28;20524;-76
2023/05/02 04:40:42;;;;;;;12.75;2.47;;;;;;;;;;5003410;28;20419;-76
2023/05/02 04:43:09;;;;;;;12.53;3.13;;;;;;;;;;5004263;28;20404;-77
2023/05/02 04:45:35;;;;;;;8.45;2.35;;;;;;;;;;5004410;28;20430;-77
2023/05/02 04:48:02;;;;;;;7.72;2.35;;;;;;;;;;5001398;28;20428;-77
2023/05/02 04:50:31;;;;;;;10.15;2.92;;;;;;;;;;4992754;28;20408;-78
2023/05/02 04:52:59;;;;;;;12.50;3.10;;;;;;;;;;5015343;28;20514;-78
2023/05/02 04:55:29;;;;;;;27.40;13.30;;;;;;;;;;5036688;28;20415;-78
2023/05/02 04:57:55;;;;;;;17.05;6.13;;;;;;;;;;5000485;28;20555;-77
2023/05/02 05:00:21;;;;;;;20.15;10.25;;;;;;;;;;5029854;28;20972;-77
2023/05/02 05:02:47;;;;;;;9.00;3.00;;;;;;;;;;5013648;28;20508;-77
2023/05/02 05:05:13;;;;;;;7.70;2.53;;;;;;;;;;5004074;28;20512;-78
2023/05/02 05:07:40;;;;;;;9.55;2.72;;;;;;;;;;5004020;28;20411;-77
2023/05/02 05:10:07;;;;;;;12.27;3.63;;;;;;;;;;5034619;28;20415;-77
2023/05/02 05:12:33;;;;;;;9.02;3.10;;;;;;;;;;5015901;28;20909;-77
2023/05/02 05:15:02;;;;;;;22.38;10.77;;;;;;;;;;5000511;28;20429;-77
2023/05/02 05:17:28;;;;;;;10.33;3.20;;;;;;;;;;5001880;28;20603;-79
2023/05/02 05:19:54;;;;;;;18.70;8.25;;;;;;;;;;5001027;28;20427;-78
2023/05/02 05:22:21;;;;;;;13.48;4.53;;;;;;;;;;5017515;28;20423;-78
2023/05/02 05:24:51;;;;;;;10.18;2.83;;;;;;;;;;5014376;28;20509;-78
2023/05/02 05:27:17;;;;;;;12.00;3.15;;;;;;;;;;4998171;28;20448;-79
2023/05/02 05:29:43;;;;;;;11.10;3.30;;;;;;;;;;5030587;28;20418;-78
2023/05/02 05:32:09;;;;;;;13.38;3.70;;;;;;;;;;5014628;28;20442;-76
2023/05/02 05:34:36;;;;;;;14.15;7.57;;;;;;;;;;5003582;28;20452;-76
2023/05/02 05:37:02;;;;;;;8.02;2.92;;;;;;;;;;5033199;28;20458;-77
2023/05/02 05:39:28;;;;;;;12.38;4.28;;;;;;;;;;5022537;28;20486;-77
2023/05/02 05:41:56;;;;;;;13.63;4.72;;;;;;;;;;5016060;28;20466;-77
2023/05/02 05:44:24;;;;;;;11.77;3.95;;;;;;;;;;4999138;28;20423;-77
2023/05/02 05:46:50;;;;;;;17.13;5.43;;;;;;;;;;4996384;28;20423;-77
2023/05/02 05:49:16;;;;;;;12.18;5.43;;;;;;;;;;5025602;28;20425;-78
2023/05/02 05:51:42;;;;;;;10.05;4.63;;;;;;;;;;5013124;28;20513;-77
2023/05/02 05:54:08;;;;;;;11.70;4.80;;;;;;;;;;5033939;28;20425;-78
2023/05/02 05:56:34;;;;;;;12.20;5.22;;;;;;;;;;5046425;28;20451;-78
2023/05/02 05:59:00;;;;;;;10.93;4.50;;;;;;;;;;5011642;28;20429;-78
2023/05/02 06:01:26;;;;;;;13.98;5.53;;;;;;;;;;5006565;28;20947;-78
2023/05/02 06:03:52;;;;;;;14.18;5.57;;;;;;;;;;5010066;28;20420;-77
2023/05/02 06:06:19;;;;;;;11.00;5.68;;;;;;;;;;5023406;28;21105;-77
2023/05/02 06:08:45;;;;;;;12.55;4.97;;;;;;;;;;5022440;28;20427;-77
2023/05/02 06:11:11;;;;;;;14.32;5.50;;;;;;;;;;5017254;28;20410;-78
2023/05/02 06:13:37;;;;;;;16.45;6.88;;;;;;;;;;5028247;28;20770;-79
2023/05/02 06:16:04;;;;;;;13.75;3.67;;;;;;;;;;5029514;28;20424;-77
2023/05/02 06:18:30;;;;;;;13.70;3.72;;;;;;;;;;5028862;28;20431;-78
2023/05/02 06:20:56;;;;;;;9.88;4.22;;;;;;;;;;5031972;28;20514;-79
2023/05/02 06:23:25;;;;;;;11.05;3.30;;;;;;;;;;5012263;28;20493;-79
2023/05/02 06:25:51;;;;;;;12.23;3.37;;;;;;;;;;5045698;28;20428;-79
2023/05/02 06:28:17;;;;;;;11.60;3.30;;;;;;;;;;5019338;28;20921;-79
2023/05/02 06:30:43;;;;;;;13.52;3.40;;;;;;;;;;5033511;28;20774;-78
2023/05/02 06:33:11;;;;;;;10.70;3.33;;;;;;;;;;4997546;28;20408;-79
2023/05/02 06:35:37;;;;;;;11.25;3.28;;;;;;;;;;5034848;28;20429;-80
2023/05/02 06:38:04;;;;;;;10.32;3.22;;;;;;;;;;5031313;28;20419;-79
2023/05/02 06:40:30;;;;;;;10.60;3.88;;;;;;;;;;5010717;28;20435;-79
2023/05/02 06:42:56;;;;;;;14.85;4.85;;;;;;;;;;5028454;28;20838;-80
2023/05/02 06:45:22;;;;;;;11.90;3.25;;;;;;;;;;5022711;28;20434;-80
2023/05/02 06:47:48;;;;;;;9.40;3.77;;;;;;;;;;5026671;28;20490;-80
2023/05/02 06:50:20;;;;;;;11.48;4.80;;;;;;;;;;5006297;28;20432;-79
2023/05/02 06:52:48;;;;;;;12.40;3.70;;;;;;;;;;5000912;28;20526;-78
2023/05/02 06:55:14;;;;;;;10.40;3.20;;;;;;;;;;5004227;28;20513;-79
2023/05/02 06:57:44;;;;;;;14.02;3.83;;;;;;;;;;5023868;28;20785;-78
2023/05/02 07:00:10;;;;;;;10.25;3.30;;;;;;;;;;5016005;28;20916;-78
2023/05/02 07:02:37;;;;;;;14.82;3.80;;;;;;;;;;5004275;28;20420;-79
2023/05/02 07:05:14;;;;;;;11.88;3.42;;;;;;;;;;5006138;28;20516;-79
2023/05/02 07:07:50;;;;;;;13.77;3.50;;;;;;;;;;5005401;28;20430;-79
2023/05/02 07:10:16;;;;;;;10.43;3.40;;;;;;;;;;5012090;28;20615;-80
2023/05/02 07:12:42;;;;;;;13.05;3.30;;;;;;;;;;5014144;28;20496;-79
2023/05/02 07:15:26;;;;;;;13.40;3.50;;;;;;;;;;4990522;28;20435;-79
2023/05/02 07:17:56;;;;;;;11.82;3.60;;;;;;;;;;5020338;28;20482;-79
2023/05/02 07:20:24;;;;;;;12.13;3.53;;;;;;;;;;5001728;28;20428;-79
2023/05/02 07:22:50;;;;;;;11.98;3.40;;;;;;;;;;4987664;28;20542;-79
2023/05/02 07:25:16;;;;;;;11.65;3.38;;;;;;;;;;5020827;28;21007;-79
2023/05/02 07:27:42;;;;;;;13.75;3.25;;;;;;;;;;4993489;28;20491;-79
2023/05/02 07:30:13;;;;;;;11.90;3.60;;;;;;;;;;4987471;28;20513;-81
2023/05/02 07:32:45;;;;;;;8.52;4.18;;;;;;;;;;4991123;28;20426;-81
2023/05/02 07:35:11;;;;;;;10.98;3.03;;;;;;;;;;4961998;28;20930;-80
2023/05/02 07:38:19;;;;;;;10.23;3.47;;;;;;;;;;4992746;28;20897;-80
2023/05/02 07:40:52;;;;;;;10.43;3.42;;;;;;;;;;4984701;28;20424;-81
2023/05/02 07:43:36;;;;;;;9.25;3.30;;;;;;;;;;4976923;28;20418;-81
2023/05/02 07:46:09;;;;;;;11.77;3.08;;;;;;;;;;4976615;28;20398;-81
2023/05/02 07:48:45;;;;;;;8.55;3.45;;;;;;;;;;5001799;28;20428;-82
2023/05/02 07:51:34;;;;;;;9.35;2.92;;;;;;;;;;4971839;28;20449;-80
2023/05/02 07:54:01;;;;;;;9.68;2.90;;;;;;;;;;4966947;28;20440;-80
2023/05/02 07:56:28;;;;;;;13.00;3.53;;;;;;;;;;4940482;29;20429;-80
2023/05/02 07:58:55;;;;;;;11.52;3.50;;;;;;;;;;4950219;28;20662;-80
2023/05/02 08:01:21;;;;;;;8.18;3.40;;;;;;;;;;4940623;28;21161;-80
2023/05/02 08:03:48;;;;;;;10.82;4.55;;;;;;;;;;4952483;28;20450;-80
2023/05/02 08:06:14;;;;;;;12.95;3.75;;;;;;;;;;4977193;28;20464;-79
2023/05/02 08:08:41;;;;;;;11.15;3.03;;;;;;;;;;4996616;28;20420;-78
2023/05/02 08:11:11;;;;;;;11.57;2.83;;;;;;;;;;4997688;28;20494;-79
2023/05/02 08:13:37;;;;;;;9.68;3.50;;;;;;;;;;4991221;28;20442;-79
2023/05/02 08:16:03;;;;;;;10.30;3.37;;;;;;;;;;4973766;28;20524;-79
2023/05/02 08:18:31;;;;;;;7.75;2.53;;;;;;;;;;4977156;28;20929;-78
2023/05/02 08:20:58;;;;;;;12.68;4.57;;;;;;;;;;4996342;28;20412;-78
2023/05/02 08:23:44;;;;;;;9.23;3.80;;;;;;;;;;4992478;28;20913;-79
2023/05/02 08:26:10;;;;;;;10.18;3.45;;;;;;;;;;5011627;28;20427;-79
2023/05/02 08:28:36;;;;;;;6.70;3.08;;;;;;;;;;4977812;28;20432;-79
2023/05/02 08:31:02;;;;;;;7.57;2.40;;;;;;;;;;4996281;28;20429;-80
2023/05/02 08:33:29;;;;;;;8.80;2.42;;;;;;;;;;4976189;28;20437;-80
2023/05/02 08:35:55;;;;;;;7.60;2.60;;;;;;;;;;4979190;28;20425;-79
2023/05/02 08:38:22;;;;;;;8.63;2.78;;;;;;;;;;4996903;28;20471;-80
2023/05/02 08:40:48;;;;;;;10.27;3.38;;;;;;;;;;4981156;28;20431;-79
2023/05/02 08:43:16;;;;;;;8.02;3.22;;;;;;;;;;4999300;28;20889;-81
2023/05/02 08:45:43;;;;;;;11.63;4.97;;;;;;;;;;5002766;28;21130;-80
2023/05/02 08:48:10;;;;;;;9.15;4.88;;;;;;;;;;5017899;28;20907;-80
2023/05/02 08:50:43;;;;;;;10.10;4.40;;;;;;;;;;5032283;28;20416;-81
2023/05/02 08:53:10;;;;;;;12.00;4.47;;;;;;;;;;5017425;28;20418;-80
2023/05/02 08:55:41;;;;;;;9.00;4.03;;;;;;;;;;4998818;28;20439;-79
2023/05/02 08:58:08;;;;;;;11.02;4.85;;;;;;;;;;5016554;28;20435;-78
2023/05/02 09:00:42;;;;;;;9.38;2.45;;;;;;;;;;4989045;28;20413;-79
2023/05/02 09:03:34;;;;;;;10.15;3.75;;;;;;;;;;5006898;28;20443;-80
2023/05/02 09:06:04;;;;;;;8.50;4.13;;;;;;;;;;5003940;28;20475;-79
2023/05/02 09:08:36;;;;;;;8.35;2.10;;;;;;;;;;5027929;28;20415;-79
2023/05/02 09:11:03;;;;;;;7.03;2.20;;;;;;;;;;4996296;28;20480;-79
2023/05/02 09:13:36;;;;;;;10.03;4.53;;;;;;;;;;5000248;28;20487;-79
2023/05/02 09:16:14;;;;;;;9.55;3.58;;;10.10;99.90;;;;;;5016274;28;20427;-79
2023/05/02 09:18:43;;;;;;;6.57;2.45;;;;;;;;;;5019327;28;20423;-79
2023/05/02 09:21:10;;;;;;;7.55;2.10;;;;;;;;;;5021666;28;20809;-79
2023/05/02 09:23:41;;;;;;;8.13;3.40;;;10.20;99.90;;;;;;4998050;28;20428;-78
2023/05/02 09:26:12;;;;;;;6.03;1.70;;;;;;;;;;5009741;28;20421;-81
2023/05/02 09:28:42;;;;;;;8.45;2.20;;;;;;;;;;5005189;28;20422;-81
2023/05/02 09:31:09;;;;;;;8.68;1.90;;;;;;;;;;5010235;28;20428;-80
2023/05/02 09:33:35;;;;;;;7.53;1.70;;;;;;;;;;5015305;28;20428;-79
2023/05/02 09:36:01;;;;;;;6.80;2.00;;;;;;;;;;5002694;28;20832;-80
2023/05/02 09:38:27;;;;;;;7.68;2.25;;;;;;;;;;5015513;28;20455;-79
2023/05/02 09:40:55;;;;;;;7.60;2.05;;;;;;;;;;5007988;28;20429;-80
2023/05/02 09:43:21;;;;;;;4.22;1.45;;;;;;;;;;5026904;28;20425;-80
2023/05/02 09:45:57;;;;;;;5.30;1.50;;;10.40;99.90;;;;;;5020613;28;20417;-79
2023/05/02 09:48:26;;;;;;;5.85;1.50;;;;;;;;;;5009397;28;20453;-80
2023/05/02 09:50:53;;;;;;;5.15;1.42;;;;;;;;;;5015700;28;20425;-81
2023/05/02 09:53:19;;;;;;;4.03;1.58;;;;;;;;;;5006441;28;20421;-80
2023/05/02 09:55:45;;;;;;;3.83;1.25;;;;;;;;;;5025408;28;20450;-80
2023/05/02 09:58:20;;;;;;;5.03;1.67;;;;;;;;;;5017947;28;20785;-81
2023/05/02 10:00:46;;;;;;;5.10;1.50;;;;;;;;;;5010717;28;20417;-80
2023/05/02 10:03:19;;;;;;;4.78;1.48;;;11.10;99.90;;;;;;5013374;28;20430;-80
2023/05/02 10:05:46;;;;;;;3.43;1.43;;;;;;;;;;5016095;28;20443;-81
2023/05/02 10:08:13;;;;;;;3.47;1.30;;;10.90;99.90;;;;;;4990859;28;20426;-80
2023/05/02 10:10:40;;;;;;;5.53;1.85;;;;;;;;;;4984364;28;20416;-81
2023/05/02 10:13:07;;;;;;;4.85;1.60;;;10.60;99.90;;;;;;4989889;28;20747;-80
2023/05/02 10:15:36;;;;;;;5.25;1.83;;;10.60;99.90;;;;;;5014376;28;20983;-81
2023/05/02 10:18:06;;;;;;;6.57;2.00;;;;;;;;;;5000743;28;20440;-81
2023/05/02 10:20:36;;;;;;;8.70;1.77;;;;;;;;;;5010520;28;20486;-80
2023/05/02 10:23:02;;;;;;;8.13;1.83;;;;;;;;;;5019819;28;20419;-80
2023/05/02 10:25:28;;;;;;;7.30;1.98;;;;;;;;;;5027534;28;20920;-80
2023/05/02 10:27:59;;;;;;;5.93;2.10;;;;;;;;;;5026765;28;20500;-79
2023/05/02 10:30:25;;;;;;;6.47;2.07;;;;;;;;;;5035260;28;20435;-78
2023/05/02 10:32:53;;;;;;;5.97;1.92;;;;;;;;;;5019128;28;20440;-80
2023/05/02 10:35:19;;;;;;;5.57;1.98;;;;;;;;;;5020272;28;20401;-79
2023/05/02 10:37:48;;;;;;;5.28;1.85;;;;;;;;;;5032418;28;20849;-77
2023/05/02 10:40:18;;;;;;;3.87;1.53;;;;;;;;;;5046979;28;20406;-80
2023/05/02 10:42:48;;;;;;;4.72;2.20;;;;;;;;;;5020433;28;20401;-80
2023/05/02 10:45:31;;;;;;;5.13;1.70;;;;;;;;;;5020659;28;20426;-79
2023/05/02 10:48:17;;;;;;;4.10;1.67;;;;;;;;;;5015531;28;20417;-80
2023/05/02 10:51:25;;;;;;;3.92;1.58;;;;;;;;;;5007924;28;20419;-79
2023/05/02 10:54:24;;;;;;;4.85;1.60;;;;;;;;;;4996212;28;20927;-80
2023/05/02 10:57:13;;;;;;;3.75;1.35;;;;;;;;;;4978428;28;20789;-80
2023/05/02 10:59:41;;;;;;;4.55;1.52;;;;;;;;;;4971617;28;20431;-80
2023/05/02 11:02:41;;;;;;;4.57;1.75;;;11.10;99.90;;;;;;4981888;28;20965;-80
2023/05/02 11:05:07;;;;;;;7.63;1.90;;;;;;;;;;4965274;28;20912;-80
2023/05/02 11:07:40;;;;;;;5.55;1.90;;;;;;;;;;4990152;28;20432;-80
2023/05/02 11:10:15;;;;;;;3.50;1.80;;;;;;;;;;4977871;28;21019;-79
2023/05/02 11:12:45;;;;;;;5.82;2.50;;;;;;;;;;4983035;28;20526;-81
2023/05/02 11:15:15;;;;;;;6.18;2.80;;;;;;;;;;4998579;28;20507;-80
2023/05/02 11:18:02;;;;;;;8.90;4.30;;;;;;;;;;5013214;28;20434;-79
2023/05/02 11:20:28;;;;;;;9.87;4.57;;;;;;;;;;4980303;28;20410;-80
2023/05/02 11:23:20;;;;;;;8.73;4.53;;;10.90;99.90;;;;;;4994115;28;20425;-80
2023/05/02 11:25:59;;;;;;;7.57;2.28;;;10.90;99.90;;;;;;4998607;28;20514;-79
2023/05/02 11:28:37;;;;;;;9.35;5.25;;;;;;;;;;4995203;28;20440;-79
2023/05/02 11:31:04;;;;;;;7.00;3.08;;;;;;;;;;4989627;28;20477;-79
2023/05/02 11:33:30;;;;;;;4.75;1.77;;;;;;;;;;4998298;28;20527;-79
2023/05/02 11:35:57;;;;;;;6.43;2.05;;;;;;;;;;4982716;28;21099;-79
2023/05/02 11:38:24;;;;;;;5.35;1.88;;;;;;;;;;5011521;28;20452;-78
2023/05/02 11:40:58;;;;;;;6.32;2.65;;;11.20;99.90;;;;;;5042004;28;20453;-79
2023/05/02 11:43:25;;;;;;;7.10;3.38;;;11.20;99.90;;;;;;5012052;28;20447;-78
2023/05/02 11:45:52;;;;;;;5.38;2.28;;;;;;;;;;5040379;28;20421;-77
2023/05/02 11:48:19;;;;;;;8.95;3.80;;;;;;;;;;5040448;28;20408;-79
2023/05/02 11:50:54;;;;;;;6.47;2.88;;;;;;;;;;5018916;28;20521;-80
2023/05/02 11:53:21;;;;;;;7.38;2.10;;;;;;;;;;5036663;28;20417;-80
2023/05/02 11:55:53;;;;;;;5.13;1.75;;;10.90;99.90;;;;;;5020222;28;20474;-79
2023/05/02 11:58:23;;;;;;;5.63;1.90;;;10.70;99.90;;;;;;5053656;28;20433;-78
2023/05/02 12:00:51;;;;;;;8.73;2.15;;;;;;;;;;5042405;28;20774;-78
2023/05/02 12:03:28;;;;;;;5.93;2.37;;;11.10;99.90;;;;;;5030769;28;20501;-80
2023/05/02 12:05:54;;;;;;;6.77;3.97;;;;;;;;;;5021577;28;20499;-78
2023/05/02 12:08:21;;;;;;;7.13;2.60;;;;;;;;;;5037953;28;20402;-78
2023/05/02 12:10:48;;;;;;;8.23;3.80;;;;;;;;;;5036500;28;20425;-78
2023/05/02 12:13:14;;;;;;;5.72;2.65;;;;;;;;;;5057259;28;20393;-78
2023/05/02 12:15:40;;;;;;;5.40;1.90;;;10.20;99.90;;;;;;5045540;28;20783;-77
2023/05/02 12:18:07;;;;;;;5.55;1.80;;;;;;;;;;5035539;28;20491;-79
2023/05/02 12:20:33;;;;;;;5.47;2.08;;;;;;;;;;5035054;28;20425;-77
2023/05/02 12:22:59;;;;;;;7.33;1.70;;;;;;;;;;5048410;28;20504;-79
2023/05/02 12:25:25;;;;;;;5.18;1.65;;;;;;;;;;5017390;28;20421;-79
2023/05/02 12:27:58;;;;;;;4.43;1.45;;;;;;;;;;5033025;28;20953;-79
2023/05/02 12:30:25;;;;;;;3.03;1.73;;;;;;;;;;5033899;28;20580;-79
2023/05/02 12:33:00;;;;;;;3.95;1.40;;;11.00;99.90;;;;;;5018592;28;20440;-79
2023/05/02 12:35:27;;;;;;;2.80;0.90;;;;;;;;;;5030094;28;20943;-79
2023/05/02 12:37:53;;;;;;;3.70;1.20;;;;;;;;;;5021023;28;20483;-79
2023/05/02 12:40:19;;;;;;;3.40;1.00;;;;;;;;;;5026760;28;20417;-78
2023/05/02 12:42:59;;;;;;;3.10;1.20;;;;;;;;;;5006051;28;20417;-79
2023/05/02 12:45:28;;;;;;;3.07;1.30;;;;;;;;;;5040224;28;20769;-79
2023/05/02 12:47:54;;;;;;;3.42;1.20;;;;;;;;;;5037429;28;20452;-77
2023/05/02 12:50:20;;;;;;;4.72;1.27;;;;;;;;;;5053334;28;20436;-77
2023/05/02 12:52:58;;;;;;;2.60;1.48;;;;;;;;;;5037742;28;20421;-77
2023/05/02 12:55:28;;;;;;;3.95;1.40;;;12.20;99.90;;;;;;5018085;28;20455;-78
2023/05/02 12:58:01;;;;;;;3.00;1.38;;;;;;;;;;5026503;28;20976;-77
2023/05/02 13:00:28;;;;;;;2.13;0.90;;;;;;;;;;5031855;28;20433;-77
2023/05/02 13:02:54;;;;;;;5.60;1.20;;;;;;;;;;5024137;28;20458;-77
2023/05/02 13:05:20;;;;;;;3.53;1.20;;;;;;;;;;4999305;28;20930;-79
2023/05/02 13:07:46;;;;;;;2.80;1.17;;;;;;;;;;5033727;28;20421;-78
2023/05/02 13:10:12;;;;;;;4.53;1.40;;;;;;;;;;5027095;28;20547;-78
2023/05/02 13:12:39;;;;;;;2.28;1.08;;;;;;;;;;5029448;28;20472;-79
2023/05/02 13:15:05;;;;;;;2.70;1.27;;;;;;;;;;5035727;28;20470;-79
2023/05/02 13:17:32;;;;;;;1.98;0.90;;;;;;;;;;5039591;28;20425;-78
2023/05/02 13:19:58;;;;;;;1.95;0.80;;;;;;;;;;5018793;28;20810;-78
2023/05/02 13:22:25;;;;;;;2.53;1.10;;;;;;;;;;5008751;28;20429;-77
2023/05/02 13:24:51;;;;;;;3.40;1.00;;;;;;;;;;5028944;28;20528;-78
2023/05/02 13:27:17;;;;;;;5.07;1.45;;;;;;;;;;5033442;28;20427;-78
2023/05/02 13:29:44;;;;;;;4.87;1.50;;;;;;;;;;5014646;28;20440;-78
2023/05/02 13:32:10;;;;;;;4.82;1.38;;;;;;;;;;5032671;28;20433;-79
2023/05/02 13:34:37;;;;;;;5.35;1.65;;;;;;;;;;5028558;28;20429;-78
2023/05/02 13:37:03;;;;;;;2.95;1.15;;;;;;;;;;5037332;28;20425;-79
2023/05/02 13:39:29;;;;;;;4.37;1.30;;;;;;;;;;5031481;28;20512;-79
2023/05/02 13:41:55;;;;;;;4.65;1.30;;;;;;;;;;5038710;28;20449;-79
2023/05/02 13:44:21;;;;;;;5.35;1.30;;;;;;;;;;5035992;28;20421;-79
2023/05/02 13:46:47;;;;;;;3.38;1.20;;;;;;;;;;5016685;28;20426;-78
2023/05/02 13:49:13;;;;;;;5.73;1.20;;;;;;;;;;5032203;28;20469;-78
2023/05/02 13:51:39;;;;;;;3.25;1.30;;;;;;;;;;5036690;28;20425;-80
2023/05/02 13:54:05;;;;;;;2.88;1.10;;;;;;;;;;5017395;28;20516;-80
2023/05/02 13:56:32;;;;;;;3.03;1.20;;;;;;;;;;5035618;28;20484;-78
2023/05/02 13:58:58;;;;;;;4.28;1.33;;;;;;;;;;5014827;28;20423;-78
2023/05/02 14:01:26;;;;;;;3.80;1.10;;;;;;;;;;5043407;28;20411;-76
2023/05/02 14:03:53;;;;;;;3.45;1.23;;;;;;;;;;5016493;28;20429;-76
2023/05/02 14:06:20;;;;;;;3.47;1.10;;;;;;;;;;5035762;28;20432;-78
2023/05/02 14:08:46;;;;;;;2.75;0.90;;;;;;;;;;5052736;28;20421;-78
2023/05/02 14:11:12;;;;;;;2.88;1.00;;;;;;;;;;5037491;28;20417;-78
2023/05/02 14:13:39;;;;;;;4.82;1.30;;;;;;;;;;5036500;28;20417;-76
2023/05/02 14:16:05;;;;;;;3.17;1.00;;;;;;;;;;5036502;28;20418;-76
2023/05/02 14:18:31;;;;;;;3.03;1.13;;;;;;;;;;5040353;28;20419;-76
2023/05/02 14:20:58;;;;;;;2.97;1.23;;;;;;;;;;5040296;28;20436;-77
2023/05/02 14:23:27;;;;;;;4.00;1.08;;;;;;;;;;5038481;28;20413;-78
2023/05/02 14:25:53;;;;;;;3.40;1.00;;;;;;;;;;5037250;28;20441;-77
2023/05/02 14:28:19;;;;;;;3.17;1.08;;;;;;;;;;5051154;28;20421;-76
2023/05/02 14:30:47;;;;;;;5.00;1.93;;;;;;;;;;5030654;28;20464;-77
2023/05/02 14:33:14;;;;;;;6.28;1.38;;;;;;;;;;5054344;28;20835;-78
2023/05/02 14:35:40;;;;;;;5.72;1.27;;;;;;;;;;5031098;28;20410;-78
2023/05/02 14:38:06;;;;;;;5.13;1.40;;;;;;;;;;5018669;28;20975;-78
2023/05/02 14:40:32;;;;;;;7.90;1.67;;;;;;;;;;5036087;28;20937;-78
2023/05/02 14:42:58;;;;;;;4.45;1.50;;;;;;;;;;5033507;28;20421;-78